sensor_id;sensor_type;location;lat;lon;timestamp;pressure;altitude;pressure_sealevel;temperature;humidity
49178;BME280;35016;55.674;37.468;2023-04-07T00:00:58;99881.81;;;4.65;45.60
49178;BME280;35016;55.674;37.468;2023-04-07T00:03:25;99874.56;;;4.59;45.82
49178;BME280;35016;55.674;37.468;2023-04-07T00:05:53;99880.75;;;4.60;45.38
49178;BME280;35016;55.674;37.468;2023-04-07T00:08:20;99889.03;;;4.58;45.43
49178;BME280;35016;55.674;37.468;2023-04-07T00:10:47;99881.41;;;4.55;45.77
49178;BME280;35016;55.674;37.468;2023-04-07T00:13:14;99888.00;;;4.53;45.69
49178;BME280;35016;55.674;37.468;2023-04-07T00:15:41;99884.28;;;4.54;45.71
49178;BME280;35016;55.674;37.468;2023-04-07T00:18:08;99888.22;;;4.51;45.96
49178;BME280;35016;55.674;37.468;2023-04-07T00:20:35;99880.59;;;4.48;45.92
49178;BME280;35016;55.674;37.468;2023-04-07T00:23:02;99884.31;;;4.47;45.58
49178;BME280;35016;55.674;37.468;2023-04-07T00:25:30;99884.13;;;4.42;45.64
49178;BME280;35016;55.674;37.468;2023-04-07T00:27:57;99880.84;;;4.40;45.88
49178;BME280;35016;55.674;37.468;2023-04-07T00:30:24;99885.38;;;4.40;45.97
49178;BME280;35016;55.674;37.468;2023-04-07T00:32:51;99885.16;;;4.41;46.12
49178;BME280;35016;55.674;37.468;2023-04-07T00:35:18;99881.03;;;4.39;45.72
49178;BME280;35016;55.674;37.468;2023-04-07T00:37:46;99886.00;;;4.35;46.23
49178;BME280;35016;55.674;37.468;2023-04-07T00:40:13;99876.91;;;4.29;45.97
49178;BME280;35016;55.674;37.468;2023-04-07T00:42:40;99893.84;;;4.30;46.44
49178;BME280;35016;55.674;37.468;2023-04-07T00:45:07;99872.38;;;4.23;46.40
49178;BME280;35016;55.674;37.468;2023-04-07T00:47:37;99882.69;;;4.26;45.99
49178;BME280;35016;55.674;37.468;2023-04-07T00:50:04;99871.34;;;4.24;46.23
49178;BME280;35016;55.674;37.468;2023-04-07T00:52:32;99875.28;;;4.22;46.29
49178;BME280;35016;55.674;37.468;2023-04-07T00:54:59;99882.91;;;4.18;46.28
49178;BME280;35016;55.674;37.468;2023-04-07T00:57:26;99880.25;;;4.18;46.51
49178;BME280;35016;55.674;37.468;2023-04-07T00:59:54;99868.06;;;4.16;46.55
49178;BME280;35016;55.674;37.468;2023-04-07T01:02:31;99874.69;;;4.13;46.74
49178;BME280;35016;55.674;37.468;2023-04-07T01:05:34;99874.88;;;4.12;46.78
49178;BME280;35016;55.674;37.468;2023-04-07T01:11:24;99873.88;;;4.06;46.82
49178;BME280;35016;55.674;37.468;2023-04-07T01:13:56;99887.47;;;4.04;46.61
49178;BME280;35016;55.674;37.468;2023-04-07T01:16:56;99891.59;;;4.00;46.41
49178;BME280;35016;55.674;37.468;2023-04-07T01:19:46;99892.41;;;4.01;46.89
49178;BME280;35016;55.674;37.468;2023-04-07T01:22:17;99890.16;;;3.98;46.63
49178;BME280;35016;55.674;37.468;2023-04-07T01:30:34;99893.25;;;3.95;46.72
49178;BME280;35016;55.674;37.468;2023-04-07T01:33:04;99895.31;;;3.93;46.87
49178;BME280;35016;55.674;37.468;2023-04-07T01:35:34;99899.25;;;3.84;46.95
49178;BME280;35016;55.674;37.468;2023-04-07T01:38:02;99891.19;;;3.90;46.96
49178;BME280;35016;55.674;37.468;2023-04-07T01:40:32;99896.75;;;3.89;46.84
49178;BME280;35016;55.674;37.468;2023-04-07T01:43:00;99891.00;;;3.85;46.86
49178;BME280;35016;55.674;37.468;2023-04-07T01:45:28;99885.22;;;3.82;46.78
49178;BME280;35016;55.674;37.468;2023-04-07T01:47:56;99882.75;;;3.80;47.05
49178;BME280;35016;55.674;37.468;2023-04-07T01:50:25;99891.38;;;3.76;46.97
49178;BME280;35016;55.674;37.468;2023-04-07T01:52:52;99880.66;;;3.76;47.10
49178;BME280;35016;55.674;37.468;2023-04-07T01:55:21;99890.97;;;3.72;47.28
49178;BME280;35016;55.674;37.468;2023-04-07T01:58:03;99884.38;;;3.68;47.47
49178;BME280;35016;55.674;37.468;2023-04-07T02:00:31;99890.56;;;3.68;47.31
49178;BME280;35016;55.674;37.468;2023-04-07T02:03:08;99892.00;;;3.64;47.57
49178;BME280;35016;55.674;37.468;2023-04-07T02:05:38;99886.22;;;3.61;47.39
49178;BME280;35016;55.674;37.468;2023-04-07T02:08:09;99890.13;;;3.58;47.23
49178;BME280;35016;55.674;37.468;2023-04-07T02:10:38;99895.91;;;3.55;47.57
49178;BME280;35016;55.674;37.468;2023-04-07T02:13:07;99889.31;;;3.58;47.49
49178;BME280;35016;55.674;37.468;2023-04-07T02:15:36;99888.91;;;3.54;47.69
49178;BME280;35016;55.674;37.468;2023-04-07T02:18:03;99892.63;;;3.53;47.64
49178;BME280;35016;55.674;37.468;2023-04-07T02:20:34;99889.31;;;3.51;47.83
49178;BME280;35016;55.674;37.468;2023-04-07T02:23:02;99897.34;;;3.51;47.82
49178;BME280;35016;55.674;37.468;2023-04-07T02:25:31;99897.56;;;3.50;48.01
49178;BME280;35016;55.674;37.468;2023-04-07T02:27:59;99897.53;;;3.43;48.01
49178;BME280;35016;55.674;37.468;2023-04-07T02:30:27;99892.97;;;3.37;47.87
49178;BME280;35016;55.674;37.468;2023-04-07T02:32:55;99896.28;;;3.39;47.81
49178;BME280;35016;55.674;37.468;2023-04-07T02:35:22;99901.03;;;3.37;47.83
49178;BME280;35016;55.674;37.468;2023-04-07T02:37:50;99908.25;;;3.36;48.06
49178;BME280;35016;55.674;37.468;2023-04-07T02:40:17;99900.41;;;3.35;48.35
49178;BME280;35016;55.674;37.468;2023-04-07T02:42:45;99899.56;;;3.34;48.10
49178;BME280;35016;55.674;37.468;2023-04-07T02:45:13;99896.28;;;3.32;48.41
49178;BME280;35016;55.674;37.468;2023-04-07T02:47:40;99893.19;;;3.29;48.26
49178;BME280;35016;55.674;37.468;2023-04-07T02:50:08;99895.66;;;3.30;48.36
49178;BME280;35016;55.674;37.468;2023-04-07T02:52:35;99894.81;;;3.23;48.35
49178;BME280;35016;55.674;37.468;2023-04-07T02:55:08;99905.97;;;3.27;48.30
49178;BME280;35016;55.674;37.468;2023-04-07T02:57:35;99908.84;;;3.25;48.30
49178;BME280;35016;55.674;37.468;2023-04-07T03:00:07;99909.66;;;3.26;48.47
49178;BME280;35016;55.674;37.468;2023-04-07T03:02:53;99910.69;;;3.25;48.65
49178;BME280;35016;55.674;37.468;2023-04-07T03:05:21;99911.53;;;3.25;48.56
49178;BME280;35016;55.674;37.468;2023-04-07T03:07:48;99907.19;;;3.24;48.52
49178;BME280;35016;55.674;37.468;2023-04-07T03:10:15;99921.22;;;3.26;48.55
49178;BME280;35016;55.674;37.468;2023-04-07T03:12:43;99912.97;;;3.28;48.56
49178;BME280;35016;55.674;37.468;2023-04-07T03:15:10;99913.78;;;3.28;48.72
49178;BME280;35016;55.674;37.468;2023-04-07T03:17:42;99913.59;;;3.30;48.65
49178;BME280;35016;55.674;37.468;2023-04-07T03:20:09;99909.06;;;3.30;48.73
49178;BME280;35016;55.674;37.468;2023-04-07T03:22:37;99917.09;;;3.30;48.84
49178;BME280;35016;55.674;37.468;2023-04-07T03:25:09;99907.19;;;3.31;48.69
49178;BME280;35016;55.674;37.468;2023-04-07T03:27:36;99908.63;;;3.27;48.90
49178;BME280;35016;55.674;37.468;2023-04-07T03:30:07;99918.34;;;3.34;48.68
49178;BME280;35016;55.674;37.468;2023-04-07T03:32:34;99918.34;;;3.34;48.66
49178;BME280;35016;55.674;37.468;2023-04-07T03:35:01;99915.44;;;3.36;48.76
49178;BME280;35016;55.674;37.468;2023-04-07T03:37:28;99923.09;;;3.39;48.74
49178;BME280;35016;55.674;37.468;2023-04-07T03:39:56;99926.38;;;3.41;48.79
49178;BME280;35016;55.674;37.468;2023-04-07T03:42:30;99926.81;;;3.45;48.66
49178;BME280;35016;55.674;37.468;2023-04-07T03:45:03;99925.59;;;3.47;48.69
49178;BME280;35016;55.674;37.468;2023-04-07T03:47:32;99930.97;;;3.54;48.53
49178;BME280;35016;55.674;37.468;2023-04-07T03:50:01;99935.31;;;3.55;48.54
49178;BME280;35016;55.674;37.468;2023-04-07T03:52:33;99931.81;;;3.61;48.64
49178;BME280;35016;55.674;37.468;2023-04-07T03:55:10;99929.53;;;3.64;48.55
49178;BME280;35016;55.674;37.468;2023-04-07T03:57:38;99940.91;;;3.73;48.59
49178;BME280;35016;55.674;37.468;2023-04-07T04:00:06;99935.16;;;3.76;48.33
49178;BME280;35016;55.674;37.468;2023-04-07T04:02:41;99930.19;;;3.80;48.24
49178;BME280;35016;55.674;37.468;2023-04-07T04:05:13;99937.22;;;3.87;48.05
49178;BME280;35016;55.674;37.468;2023-04-07T04:07:42;99941.13;;;3.91;48.25
49178;BME280;35016;55.674;37.468;2023-04-07T04:10:09;99937.63;;;3.91;48.26
49178;BME280;35016;55.674;37.468;2023-04-07T04:12:40;99935.34;;;4.01;48.30
49178;BME280;35016;55.674;37.468;2023-04-07T04:15:10;99944.66;;;4.05;48.12
49178;BME280;35016;55.674;37.468;2023-04-07T04:17:38;99941.34;;;4.10;48.45
49178;BME280;35016;55.674;37.468;2023-04-07T04:20:07;99938.88;;;4.15;48.09
49178;BME280;35016;55.674;37.468;2023-04-07T04:22:53;99940.09;;;4.19;47.86
49178;BME280;35016;55.674;37.468;2023-04-07T04:25:20;99931.44;;;4.17;47.89
49178;BME280;35016;55.674;37.468;2023-04-07T04:27:51;99944.03;;;4.23;47.96
49178;BME280;35016;55.674;37.468;2023-04-07T04:30:21;99950.63;;;4.27;48.00
49178;BME280;35016;55.674;37.468;2023-04-07T04:32:52;99945.91;;;4.35;47.73
49178;BME280;35016;55.674;37.468;2023-04-07T04:35:55;99953.13;;;4.42;47.40
49178;BME280;35016;55.674;37.468;2023-04-07T04:38:23;99939.88;;;4.47;47.65
49178;BME280;35016;55.674;37.468;2023-04-07T04:40:56;99943.38;;;4.47;47.74
49178;BME280;35016;55.674;37.468;2023-04-07T04:43:27;99940.50;;;4.49;47.52
49178;BME280;35016;55.674;37.468;2023-04-07T04:45:55;99946.69;;;4.49;47.49
49178;BME280;35016;55.674;37.468;2023-04-07T04:48:25;99950.41;;;4.55;47.46
49178;BME280;35016;55.674;37.468;2023-04-07T04:50:53;99952.44;;;4.59;47.26
49178;BME280;35016;55.674;37.468;2023-04-07T04:53:20;99955.34;;;4.64;47.51
49178;BME280;35016;55.674;37.468;2023-04-07T04:55:53;99953.06;;;4.68;47.70
49178;BME280;35016;55.674;37.468;2023-04-07T04:58:24;99957.38;;;4.76;47.58
49178;BME280;35016;55.674;37.468;2023-04-07T05:00:54;99956.31;;;4.83;47.46
49178;BME280;35016;55.674;37.468;2023-04-07T05:03:40;99954.25;;;4.85;47.29
49178;BME280;35016;55.674;37.468;2023-04-07T05:06:16;99963.97;;;4.93;47.16
49178;BME280;35016;55.674;37.468;2023-04-07T05:08:46;99959.00;;;4.96;47.49
49178;BME280;35016;55.674;37.468;2023-04-07T05:11:15;99966.63;;;5.00;47.71
49178;BME280;35016;55.674;37.468;2023-04-07T05:13:46;99963.53;;;5.03;46.91
49178;BME280;35016;55.674;37.468;2023-04-07T05:16:13;99979.41;;;5.11;47.01
49178;BME280;35016;55.674;37.468;2023-04-07T05:18:41;99963.47;;;5.16;47.31
49178;BME280;35016;55.674;37.468;2023-04-07T05:21:11;99969.88;;;5.21;47.10
49178;BME280;35016;55.674;37.468;2023-04-07T05:23:38;99961.81;;;5.21;47.13
49178;BME280;35016;55.674;37.468;2023-04-07T05:26:10;99962.00;;;5.26;46.89
49178;BME280;35016;55.674;37.468;2023-04-07T05:28:38;99969.19;;;5.33;46.87
49178;BME280;35016;55.674;37.468;2023-04-07T05:31:12;99975.38;;;5.40;46.45
49178;BME280;35016;55.674;37.468;2023-04-07T05:33:39;99973.88;;;5.44;46.73
49178;BME280;35016;55.674;37.468;2023-04-07T05:36:09;99974.91;;;5.49;46.23
49178;BME280;35016;55.674;37.468;2023-04-07T05:38:39;99977.56;;;5.56;46.69
49178;BME280;35016;55.674;37.468;2023-04-07T05:41:11;99970.72;;;5.60;46.28
49178;BME280;35016;55.674;37.468;2023-04-07T05:43:38;99983.31;;;5.66;46.62
49178;BME280;35016;55.674;37.468;2023-04-07T05:46:05;99979.56;;;5.67;46.38
49178;BME280;35016;55.674;37.468;2023-04-07T05:48:38;99978.53;;;5.68;46.22
49178;BME280;35016;55.674;37.468;2023-04-07T05:51:09;99984.72;;;5.69;45.85
49178;BME280;35016;55.674;37.468;2023-04-07T05:53:36;99987.97;;;5.77;46.04
49178;BME280;35016;55.674;37.468;2023-04-07T05:56:04;99984.25;;;5.85;45.91
49178;BME280;35016;55.674;37.468;2023-04-07T05:58:43;99981.09;;;5.95;46.36
49178;BME280;35016;55.674;37.468;2023-04-07T06:01:12;99989.72;;;6.03;46.42
49178;BME280;35016;55.674;37.468;2023-04-07T06:03:43;99990.09;;;6.07;45.50
49178;BME280;35016;55.674;37.468;2023-04-07T06:06:20;99993.66;;;6.07;45.50
49178;BME280;35016;55.674;37.468;2023-04-07T06:08:47;99990.09;;;6.07;45.60
49178;BME280;35016;55.674;37.468;2023-04-07T06:11:14;99974.84;;;6.01;45.97
49178;BME280;35016;55.674;37.468;2023-04-07T06:13:42;99991.78;;;6.08;45.46
49178;BME280;35016;55.674;37.468;2023-04-07T06:16:13;100007.28;;;6.12;45.91
49178;BME280;35016;55.674;37.468;2023-04-07T06:18:51;100001.25;;;6.17;45.31
49178;BME280;35016;55.674;37.468;2023-04-07T06:21:18;99999.16;;;6.19;45.20
49178;BME280;35016;55.674;37.468;2023-04-07T06:23:45;99990.03;;;6.20;45.27
49178;BME280;35016;55.674;37.468;2023-04-07T06:26:13;99991.84;;;6.26;45.23
49178;BME280;35016;55.674;37.468;2023-04-07T06:28:40;99989.91;;;6.33;45.70
49178;BME280;35016;55.674;37.468;2023-04-07T06:31:13;99995.88;;;6.42;44.94
49178;BME280;35016;55.674;37.468;2023-04-07T06:33:43;100004.06;;;6.53;45.14
49178;BME280;35016;55.674;37.468;2023-04-07T06:36:13;99999.41;;;6.61;45.17
49178;BME280;35016;55.674;37.468;2023-04-07T06:38:54;99994.75;;;6.49;44.90
49178;BME280;35016;55.674;37.468;2023-04-07T06:41:22;99997.28;;;6.69;44.92
49178;BME280;35016;55.674;37.468;2023-04-07T06:43:49;100003.00;;;6.79;45.11
49178;BME280;35016;55.674;37.468;2023-04-07T06:46:20;100006.06;;;6.83;44.96
49178;BME280;35016;55.674;37.468;2023-04-07T06:48:48;99999.63;;;6.84;44.73
49178;BME280;35016;55.674;37.468;2023-04-07T06:51:15;99988.84;;;6.84;44.51
49178;BME280;35016;55.674;37.468;2023-04-07T06:53:45;99993.94;;;6.92;44.38
49178;BME280;35016;55.674;37.468;2023-04-07T06:56:15;99984.38;;;6.96;44.71
49178;BME280;35016;55.674;37.468;2023-04-07T06:58:42;100014.09;;;7.08;44.85
49178;BME280;35016;55.674;37.468;2023-04-07T07:01:09;100006.38;;;7.11;44.49
49178;BME280;35016;55.674;37.468;2023-04-07T07:03:36;99995.16;;;7.14;44.43
49178;BME280;35016;55.674;37.468;2023-04-07T07:06:04;100008.31;;;7.23;44.32
49178;BME280;35016;55.674;37.468;2023-04-07T07:08:32;100001.22;;;7.28;44.31
49178;BME280;35016;55.674;37.468;2023-04-07T07:11:02;100000.63;;;7.26;44.33
49178;BME280;35016;55.674;37.468;2023-04-07T07:13:29;100018.84;;;7.31;43.56
49178;BME280;35016;55.674;37.468;2023-04-07T07:15:56;100001.75;;;7.37;43.76
49178;BME280;35016;55.674;37.468;2023-04-07T07:18:24;100003.38;;;7.38;44.26
49178;BME280;35016;55.674;37.468;2023-04-07T07:20:51;100002.38;;;7.51;44.09
49178;BME280;35016;55.674;37.468;2023-04-07T07:23:18;100021.81;;;7.59;43.67
49178;BME280;35016;55.674;37.468;2023-04-07T07:25:46;100010.25;;;7.70;43.60
49178;BME280;35016;55.674;37.468;2023-04-07T07:28:13;100011.56;;;7.80;43.19
49178;BME280;35016;55.674;37.468;2023-04-07T07:30:41;100017.25;;;7.90;43.40
49178;BME280;35016;55.674;37.468;2023-04-07T07:33:08;100014.09;;;7.93;42.86
49178;BME280;35016;55.674;37.468;2023-04-07T07:35:36;100014.34;;;8.03;42.79
49178;BME280;35016;55.674;37.468;2023-04-07T07:38:03;100018.16;;;8.14;42.80
49178;BME280;35016;55.674;37.468;2023-04-07T07:40:31;100023.22;;;8.22;42.86
49178;BME280;35016;55.674;37.468;2023-04-07T07:42:59;100008.78;;;8.28;42.46
49178;BME280;35016;55.674;37.468;2023-04-07T07:45:26;100017.56;;;8.42;42.37
49178;BME280;35016;55.674;37.468;2023-04-07T07:47:54;100012.84;;;8.49;42.29
49178;BME280;35016;55.674;37.468;2023-04-07T07:50:21;100017.44;;;8.60;42.51
49178;BME280;35016;55.674;37.468;2023-04-07T07:52:48;100012.06;;;8.72;41.98
49178;BME280;35016;55.674;37.468;2023-04-07T07:55:15;100016.28;;;8.79;41.84
49178;BME280;35016;55.674;37.468;2023-04-07T07:57:42;100011.34;;;8.88;41.65
49178;BME280;35016;55.674;37.468;2023-04-07T08:00:10;100008.63;;;8.88;41.53
49178;BME280;35016;55.674;37.468;2023-04-07T08:02:40;100019.94;;;8.96;41.55
49178;BME280;35016;55.674;37.468;2023-04-07T08:05:11;100013.47;;;8.97;40.81
49178;BME280;35016;55.674;37.468;2023-04-07T08:07:38;100010.06;;;9.02;41.20
49178;BME280;35016;55.674;37.468;2023-04-07T08:10:05;100015.22;;;9.04;40.97
49178;BME280;35016;55.674;37.468;2023-04-07T08:12:33;100001.34;;;9.12;40.96
49178;BME280;35016;55.674;37.468;2023-04-07T08:15:01;99992.84;;;9.20;41.08
49178;BME280;35016;55.674;37.468;2023-04-07T08:17:31;100000.97;;;9.31;40.52
49178;BME280;35016;55.674;37.468;2023-04-07T08:19:59;100017.53;;;9.35;40.50
49178;BME280;35016;55.674;37.468;2023-04-07T08:22:27;100008.31;;;9.48;40.55
49178;BME280;35016;55.674;37.468;2023-04-07T08:24:54;99991.59;;;9.51;40.23
49178;BME280;35016;55.674;37.468;2023-04-07T08:27:21;99997.59;;;9.53;40.42
49178;BME280;35016;55.674;37.468;2023-04-07T08:30:00;99994.84;;;9.65;39.61
49178;BME280;35016;55.674;37.468;2023-04-07T08:32:43;100004.22;;;9.74;39.23
49178;BME280;35016;55.674;37.468;2023-04-07T08:35:11;99996.19;;;9.79;39.73
49178;BME280;35016;55.674;37.468;2023-04-07T08:37:39;99993.97;;;9.76;39.65
49178;BME280;35016;55.674;37.468;2023-04-07T08:40:07;99988.41;;;9.82;39.42
49178;BME280;35016;55.674;37.468;2023-04-07T08:42:34;99993.38;;;9.85;39.34
49178;BME280;35016;55.674;37.468;2023-04-07T08:45:07;99995.94;;;9.92;39.28
49178;BME280;35016;55.674;37.468;2023-04-07T08:47:36;99986.31;;;10.01;38.91
49178;BME280;35016;55.674;37.468;2023-04-07T08:50:07;99998.31;;;10.05;38.42
49178;BME280;35016;55.674;37.468;2023-04-07T08:55:13;99985.22;;;10.14;38.76
49178;BME280;35016;55.674;37.468;2023-04-07T08:57:41;99990.00;;;10.23;38.76
49178;BME280;35016;55.674;37.468;2023-04-07T09:00:09;99984.91;;;10.27;38.61
49178;BME280;35016;55.674;37.468;2023-04-07T09:02:41;100003.47;;;10.35;38.40
49178;BME280;35016;55.674;37.468;2023-04-07T09:05:12;99982.38;;;10.37;38.25
49178;BME280;35016;55.674;37.468;2023-04-07T09:07:40;99987.66;;;10.44;38.04
49178;BME280;35016;55.674;37.468;2023-04-07T09:10:09;99984.94;;;10.44;38.20
49178;BME280;35016;55.674;37.468;2023-04-07T09:12:36;99970.31;;;10.45;37.91
49178;BME280;35016;55.674;37.468;2023-04-07T09:15:07;99968.09;;;10.42;37.75
49178;BME280;35016;55.674;37.468;2023-04-07T09:17:34;99962.81;;;10.52;38.40
49178;BME280;35016;55.674;37.468;2023-04-07T09:20:01;99968.00;;;10.53;37.54
49178;BME280;35016;55.674;37.468;2023-04-07T09:22:37;99969.78;;;10.65;37.51
49178;BME280;35016;55.674;37.468;2023-04-07T09:25:14;99979.81;;;10.81;37.33
49178;BME280;35016;55.674;37.468;2023-04-07T09:27:58;99974.34;;;10.98;36.97
49178;BME280;35016;55.674;37.468;2023-04-07T09:30:27;99974.81;;;11.11;37.53
49178;BME280;35016;55.674;37.468;2023-04-07T09:32:54;99979.03;;;11.24;37.09
49178;BME280;35016;55.674;37.468;2023-04-07T09:35:22;99974.06;;;11.38;36.71
49178;BME280;35016;55.674;37.468;2023-04-07T09:38:01;99972.53;;;11.47;35.47
49178;BME280;35016;55.674;37.468;2023-04-07T09:40:29;99976.66;;;11.49;35.99
49178;BME280;35016;55.674;37.468;2023-04-07T09:42:56;99963.38;;;11.53;35.96
49178;BME280;35016;55.674;37.468;2023-04-07T09:45:28;99978.16;;;11.62;36.05
49178;BME280;35016;55.674;37.468;2023-04-07T09:48:20;99982.63;;;11.73;33.87
49178;BME280;35016;55.674;37.468;2023-04-07T09:50:47;99964.50;;;11.79;35.17
49178;BME280;35016;55.674;37.468;2023-04-07T09:53:17;99968.69;;;11.87;35.52
49178;BME280;35016;55.674;37.468;2023-04-07T09:55:49;99965.97;;;11.87;34.93
49178;BME280;35016;55.674;37.468;2023-04-07T09:58:16;99968.09;;;11.85;35.38
49178;BME280;35016;55.674;37.468;2023-04-07T10:00:44;99970.94;;;11.95;35.11
49178;BME280;35016;55.674;37.468;2023-04-07T10:03:12;99969.44;;;12.09;34.86
49178;BME280;35016;55.674;37.468;2023-04-07T10:05:41;99983.94;;;12.20;34.79
49178;BME280;35016;55.674;37.468;2023-04-07T10:08:09;99983.19;;;12.24;34.85
49178;BME280;35016;55.674;37.468;2023-04-07T10:10:40;99990.84;;;12.32;34.39
49178;BME280;35016;55.674;37.468;2023-04-07T10:13:09;99981.09;;;12.36;34.71
49178;BME280;35016;55.674;37.468;2023-04-07T10:15:38;99975.09;;;12.34;33.95
49178;BME280;35016;55.674;37.468;2023-04-07T10:18:06;99983.84;;;12.41;34.33
49178;BME280;35016;55.674;37.468;2023-04-07T10:20:38;99980.69;;;12.50;33.66
49178;BME280;35016;55.674;37.468;2023-04-07T10:23:27;99978.56;;;12.62;31.99
49178;BME280;35016;55.674;37.468;2023-04-07T10:25:58;99975.88;;;12.67;33.69
49178;BME280;35016;55.674;37.468;2023-04-07T10:28:27;99970.19;;;12.68;33.87
49178;BME280;35016;55.674;37.468;2023-04-07T10:30:56;99982.31;;;12.88;33.50
49178;BME280;35016;55.674;37.468;2023-04-07T10:33:50;99981.84;;;13.01;32.70
49178;BME280;35016;55.674;37.468;2023-04-07T10:36:19;99984.63;;;13.11;33.64
49178;BME280;35016;55.674;37.468;2023-04-07T10:41:36;99968.63;;;13.20;32.96
49178;BME280;35016;55.674;37.468;2023-04-07T10:44:05;99977.91;;;13.29;32.88
49178;BME280;35016;55.674;37.468;2023-04-07T10:49:14;99981.81;;;13.43;32.47
49178;BME280;35016;55.674;37.468;2023-04-07T10:54:41;99983.81;;;13.63;32.33
49178;BME280;35016;55.674;37.468;2023-04-07T10:57:12;99985.19;;;13.71;31.33
49178;BME280;35016;55.674;37.468;2023-04-07T11:00:12;99980.81;;;13.70;31.67
49178;BME280;35016;55.674;37.468;2023-04-07T11:04:55;99974.44;;;13.39;31.75
49178;BME280;35016;55.674;37.468;2023-04-07T11:07:43;99969.50;;;13.30;31.38
49178;BME280;35016;55.674;37.468;2023-04-07T11:10:11;99972.75;;;13.27;32.22
49178;BME280;35016;55.674;37.468;2023-04-07T11:12:39;99983.97;;;13.36;31.98
49178;BME280;35016;55.674;37.468;2023-04-07T11:15:19;99981.81;;;13.48;31.05
49178;BME280;35016;55.674;37.468;2023-04-07T11:18:13;99975.56;;;13.53;31.61
49178;BME280;35016;55.674;37.468;2023-04-07T11:20:53;99974.22;;;13.55;31.25
49178;BME280;35016;55.674;37.468;2023-04-07T11:23:22;99979.16;;;13.63;31.70
49178;BME280;35016;55.674;37.468;2023-04-07T11:25:58;99985.72;;;13.73;31.88
49178;BME280;35016;55.674;37.468;2023-04-07T11:28:29;99980.28;;;13.83;31.69
49178;BME280;35016;55.674;37.468;2023-04-07T11:30:57;99975.97;;;13.92;31.65
49178;BME280;35016;55.674;37.468;2023-04-07T11:33:27;99974.34;;;14.01;31.46
49178;BME280;35016;55.674;37.468;2023-04-07T11:36:00;99970.53;;;14.07;30.18
49178;BME280;35016;55.674;37.468;2023-04-07T11:38:29;99967.81;;;14.07;30.98
49178;BME280;35016;55.674;37.468;2023-04-07T11:41:13;99960.72;;;14.06;30.01
49178;BME280;35016;55.674;37.468;2023-04-07T11:43:41;99964.53;;;14.10;30.63
49178;BME280;35016;55.674;37.468;2023-04-07T11:46:16;99959.34;;;14.14;29.83
49178;BME280;35016;55.674;37.468;2023-04-07T11:48:44;99960.72;;;14.01;30.96
49178;BME280;35016;55.674;37.468;2023-04-07T11:51:17;99964.78;;;13.88;30.45
49178;BME280;35016;55.674;37.468;2023-04-07T11:53:45;99965.03;;;13.77;30.84
49178;BME280;35016;55.674;37.468;2023-04-07T11:56:16;99962.56;;;13.65;30.81
49178;BME280;35016;55.674;37.468;2023-04-07T11:58:48;99973.69;;;13.58;30.41
49178;BME280;35016;55.674;37.468;2023-04-07T12:01:16;99968.75;;;13.55;30.83
49178;BME280;35016;55.674;37.468;2023-04-07T12:04:03;99972.84;;;13.58;30.56
49178;BME280;35016;55.674;37.468;2023-04-07T12:06:33;99962.56;;;13.65;30.79
49178;BME280;35016;55.674;37.468;2023-04-07T12:09:01;99953.03;;;13.83;30.66
49178;BME280;35016;55.674;37.468;2023-04-07T12:11:28;99962.63;;;14.11;30.20
49178;BME280;35016;55.674;37.468;2023-04-07T12:13:55;99974.13;;;14.59;30.38
49178;BME280;35016;55.674;37.468;2023-04-07T12:16:23;99973.75;;;15.21;30.25
49178;BME280;35016;55.674;37.468;2023-04-07T12:18:50;99962.53;;;15.87;29.91
49178;BME280;35016;55.674;37.468;2023-04-07T12:21:18;99964.47;;;16.60;29.47
49178;BME280;35016;55.674;37.468;2023-04-07T12:23:46;99961.41;;;17.43;29.22
49178;BME280;35016;55.674;37.468;2023-04-07T12:26:14;99970.16;;;18.07;28.91
49178;BME280;35016;55.674;37.468;2023-04-07T12:28:41;99952.53;;;18.45;28.39
49178;BME280;35016;55.674;37.468;2023-04-07T12:31:09;99962.34;;;18.84;27.83
49178;BME280;35016;55.674;37.468;2023-04-07T12:33:36;99958.09;;;19.19;27.75
49178;BME280;35016;55.674;37.468;2023-04-07T12:36:04;99960.34;;;19.44;26.85
49178;BME280;35016;55.674;37.468;2023-04-07T12:38:31;99946.56;;;19.44;26.32
49178;BME280;35016;55.674;37.468;2023-04-07T12:40:58;99958.06;;;19.33;26.23
49178;BME280;35016;55.674;37.468;2023-04-07T12:43:29;99949.25;;;19.08;26.31
49178;BME280;35016;55.674;37.468;2023-04-07T12:45:57;99966.50;;;18.95;26.11
49178;BME280;35016;55.674;37.468;2023-04-07T12:48:24;99961.81;;;18.82;26.31
49178;BME280;35016;55.674;37.468;2023-04-07T12:50:53;99959.44;;;18.75;26.11
49178;BME280;35016;55.674;37.468;2023-04-07T12:53:20;99943.16;;;18.79;25.83
49178;BME280;35016;55.674;37.468;2023-04-07T12:55:48;99949.00;;;18.91;25.88
49178;BME280;35016;55.674;37.468;2023-04-07T12:58:16;99953.63;;;19.09;25.59
49178;BME280;35016;55.674;37.468;2023-04-07T13:00:45;99954.00;;;19.44;25.73
49178;BME280;35016;55.674;37.468;2023-04-07T13:03:15;99941.91;;;19.95;25.08
49178;BME280;35016;55.674;37.468;2023-04-07T13:05:42;99947.03;;;20.68;24.60
49178;BME280;35016;55.674;37.468;2023-04-07T13:08:09;99954.50;;;21.39;23.93
49178;BME280;35016;55.674;37.468;2023-04-07T13:10:39;99948.44;;;21.93;23.47
49178;BME280;35016;55.674;37.468;2023-04-07T13:13:09;99941.34;;;22.27;22.86
49178;BME280;35016;55.674;37.468;2023-04-07T13:15:38;99950.56;;;22.57;22.65
49178;BME280;35016;55.674;37.468;2023-04-07T13:18:05;99951.44;;;22.96;22.45
49178;BME280;35016;55.674;37.468;2023-04-07T13:20:32;99949.25;;;23.48;21.80
49178;BME280;35016;55.674;37.468;2023-04-07T13:22:59;99949.91;;;24.04;21.29
49178;BME280;35016;55.674;37.468;2023-04-07T13:25:36;99949.09;;;24.57;21.44
49178;BME280;35016;55.674;37.468;2023-04-07T13:28:03;99942.59;;;24.86;20.97
49178;BME280;35016;55.674;37.468;2023-04-07T13:30:32;99961.19;;;25.19;20.44
49178;BME280;35016;55.674;37.468;2023-04-07T13:32:59;99957.13;;;25.41;20.09